Time;durP1;ratioP1;P1;durP2;ratioP2;P2;SDS_P1;SDS_P2;PMS_P1;PMS_P2;Temp;Humidity;BMP_temperature;BMP_pressure;BME280_temperature;BME280_humidity;BME280_pressure;Samples;Min_cycle;Max_cycle;Signal;HPM_P1;HPM_P2
2021/06/16 00:01:58;;;;;;;2.83;1.92;;;;;;;15.09;36.86;101439.53;5014296;27;98946;-78
2021/06/16 00:04:26;;;;;;;2.30;2.10;;;;;;;15.06;36.69;101444.88;5028930;27;97396;-78
2021/06/16 00:06:55;;;;;;;2.33;2.13;;;;;;;15.02;36.64;101443.03;5038434;27;97304;-78
2021/06/16 00:09:23;;;;;;;2.17;1.88;;;;;;;14.98;36.85;101436.72;5030077;27;99546;-78
2021/06/16 00:11:51;;;;;;;2.47;1.83;;;;;;;14.95;36.72;101452.78;5042781;27;98128;-78
2021/06/16 00:14:21;;;;;;;2.03;1.88;;;;;;;14.92;37.14;101443.75;5033300;27;96899;-77
2021/06/16 00:16:49;;;;;;;2.15;1.95;;;;;;;14.87;36.88;101438.34;5035441;27;97232;-77
2021/06/16 00:19:17;;;;;;;6.10;2.38;;;;;;;14.82;36.84;101439.16;5016855;27;99762;-76
2021/06/16 00:21:45;;;;;;;1.83;1.73;;;;;;;14.79;37.09;101441.81;5014021;27;99262;-76
2021/06/16 00:24:14;;;;;;;2.85;1.83;;;;;;;14.75;37.21;101439.97;5038936;27;97907;-76
2021/06/16 00:26:42;;;;;;;1.73;1.60;;;;;;;14.71;37.08;101443.47;5028563;27;97495;-76
2021/06/16 00:29:10;;;;;;;4.35;2.00;;;;;;;14.68;37.10;101443.44;5012439;27;100379;-77
2021/06/16 00:31:39;;;;;;;1.98;1.88;;;;;;;14.66;37.41;101440.72;5026516;27;99238;-75
2021/06/16 00:34:07;;;;;;;2.08;1.95;;;;;;;14.63;37.22;101438.00;5028549;27;96981;-76
2021/06/16 00:36:35;;;;;;;1.73;1.63;;;;;;;14.59;37.21;101435.28;5027046;27;98071;-75
2021/06/16 00:39:06;;;;;;;3.53;2.15;;;;;;;14.56;37.55;101437.88;5029638;27;98837;-77
2021/06/16 00:41:34;;;;;;;3.00;1.90;;;;;;;14.52;37.46;101436.00;5051976;27;99091;-77
2021/06/16 00:44:02;;;;;;;1.98;1.80;;;;;;;14.49;37.52;101430.59;5041869;27;96938;-76
2021/06/16 00:46:30;;;;;;;2.22;2.05;;;;;;;14.47;37.57;101427.00;5026351;27;97678;-76
2021/06/16 00:49:00;;;;;;;2.47;2.30;;;;;;;14.43;37.65;101439.44;5041165;27;98274;-76
2021/06/16 00:51:28;;;;;;;1.80;1.80;;;;;;;14.38;37.64;101427.75;5050348;27;99175;-77
2021/06/16 00:53:55;;;;;;;3.95;1.65;;;;;;;14.35;37.70;101426.81;5015229;27;97738;-77
2021/06/16 00:56:24;;;;;;;3.90;2.30;;;;;;;14.31;37.65;101427.63;5042089;27;97807;-76
2021/06/16 00:58:51;;;;;;;2.00;1.90;;;;;;;14.27;37.86;101428.44;5047972;27;100430;-76
2021/06/16 01:01:23;;;;;;;1.65;1.55;;;;;;;14.25;37.85;101428.44;5031180;27;99486;-76
2021/06/16 01:03:56;;;;;;;2.00;2.00;;;;;;;14.21;37.82;101431.94;5030963;27;97385;-75
2021/06/16 01:06:29;;;;;;;2.78;2.22;;;;;;;14.16;37.93;101428.28;5023909;27;96909;-76
2021/06/16 01:09:00;;;;;;;3.95;1.90;;;;;;;14.13;37.92;101437.16;5031749;27;99721;-75
2021/06/16 01:11:29;;;;;;;2.00;1.88;;;;;;;14.09;38.09;101432.66;5048459;27;97666;-74
2021/06/16 01:14:02;;;;;;;2.30;2.10;;;;;;;14.06;38.35;101440.59;5030688;27;97223;-76
2021/06/16 01:16:35;;;;;;;4.03;2.50;;;;;;;14.02;38.19;101445.91;5018335;27;97573;-76
2021/06/16 01:19:11;;;;;;;2.63;1.90;;;;;;;13.98;38.44;101449.38;5048505;27;97954;-76
2021/06/16 01:21:41;;;;;;;2.17;1.98;;;;;;;13.95;38.34;101439.50;5013369;27;97877;-75
2021/06/16 01:24:15;;;;;;;1.98;1.85;;;;;;;13.92;38.39;101438.56;5040535;27;97528;-74
2021/06/16 01:26:45;;;;;;;2.55;2.20;;;;;;;13.91;38.58;101444.78;5046334;27;97106;-76
2021/06/16 01:29:17;;;;;;;3.75;2.13;;;;;;;13.87;38.56;101440.25;5028258;27;99591;-76
2021/06/16 01:31:45;;;;;;;2.83;2.15;;;;;;;13.85;38.66;101445.59;5028940;27;98158;-74
2021/06/16 01:34:14;;;;;;;2.33;2.20;;;;;;;13.82;38.73;101442.84;5045578;27;97835;-74
2021/06/16 01:36:46;;;;;;;2.67;2.20;;;;;;;13.80;38.94;101441.94;5023171;27;97263;-75
2021/06/16 01:39:16;;;;;;;4.45;2.25;;;;;;;13.77;38.85;101438.28;5030641;27;97688;-75
2021/06/16 01:41:46;;;;;;;4.18;2.20;;;;;;;13.76;39.07;101439.13;5027851;27;99713;-75
2021/06/16 01:44:14;;;;;;;3.17;2.30;;;;;;;13.74;39.01;101432.84;5045924;27;97414;-78
2021/06/16 01:46:43;;;;;;;2.03;1.92;;;;;;;13.71;39.15;101425.69;5033105;27;96816;-76
2021/06/16 01:49:12;;;;;;;5.22;2.70;;;;;;;13.70;39.16;101430.97;5044240;27;98013;-76
2021/06/16 01:51:41;;;;;;;2.72;1.77;;;;;;;13.67;39.32;101431.84;5054321;27;99313;-78
2021/06/16 01:54:09;;;;;;;5.80;2.30;;;;;;;13.66;39.29;101431.81;5033700;27;97933;-77
2021/06/16 01:56:38;;;;;;;3.13;2.72;;;;;;;13.64;39.41;101430.88;5042797;27;97206;-74
2021/06/16 01:59:08;;;;;;;2.65;2.17;;;;;;;13.59;39.48;101427.19;5028544;27;99298;-77
2021/06/16 02:01:36;;;;;;;3.20;2.50;;;;;;;13.57;39.48;101431.66;5042952;27;97038;-76
2021/06/16 02:04:05;;;;;;;2.63;2.42;;;;;;;13.55;39.60;101428.91;5046427;27;97015;-76
2021/06/16 02:06:36;;;;;;;2.95;2.50;;;;;;;13.53;39.56;101429.78;5012170;27;97774;-77
2021/06/16 02:09:05;;;;;;;3.25;2.47;;;;;;;13.51;39.72;101439.53;5036134;27;100699;-77
2021/06/16 02:11:34;;;;;;;2.72;2.40;;;;;;;13.49;39.69;101422.56;5013580;27;101228;-77
2021/06/16 02:14:02;;;;;;;3.30;2.55;;;;;;;13.46;39.84;101426.06;5044331;27;96861;-77
2021/06/16 02:16:37;;;;;;;3.55;2.50;;;;;;;13.43;39.90;101436.72;5043097;27;97399;-77
2021/06/16 02:19:07;;;;;;;3.50;2.38;;;;;;;13.40;39.85;101425.97;5043726;27;98839;-76
2021/06/16 02:21:35;;;;;;;6.35;2.63;;;;;;;13.40;39.86;101425.06;5027099;27;99208;-76
2021/06/16 02:24:04;;;;;;;2.65;2.45;;;;;;;13.36;40.12;101434.78;5034602;27;97268;-77
2021/06/16 02:26:32;;;;;;;4.93;2.50;;;;;;;13.33;40.00;101432.03;5028803;27;97300;-76
2021/06/16 02:28:59;;;;;;;3.17;2.47;;;;;;;13.30;40.05;101429.31;5010970;27;100549;-77
2021/06/16 02:31:28;;;;;;;9.70;2.92;;;;;;;13.27;40.15;101431.94;5043651;27;98828;-77
2021/06/16 02:33:57;;;;;;;2.60;2.42;;;;;;;13.24;40.38;101422.94;5044679;27;96925;-75
2021/06/16 02:36:25;;;;;;;3.25;2.80;;;;;;;13.23;40.32;101434.50;5030334;27;98071;-77
2021/06/16 02:38:55;;;;;;;4.28;2.60;;;;;;;13.17;40.44;101428.16;5015436;27;99407;-77
2021/06/16 02:41:23;;;;;;;3.28;2.92;;;;;;;13.17;40.36;101431.72;5045355;27;98857;-76
2021/06/16 02:43:52;;;;;;;5.15;2.78;;;;;;;13.14;40.50;101432.53;5034179;27;97364;-78
2021/06/16 02:46:20;;;;;;;3.10;2.80;;;;;;;13.13;40.63;101436.06;5018017;27;97310;-76
2021/06/16 02:48:50;;;;;;;3.67;3.30;;;;;;;13.09;40.79;101432.44;5045940;27;99329;-78
2021/06/16 02:51:20;;;;;;;4.97;2.83;;;;;;;13.05;40.76;101427.00;5031912;27;99996;-77
2021/06/16 02:53:48;;;;;;;5.00;2.80;;;;;;;12.99;40.99;101432.16;5053219;27;97339;-77
2021/06/16 02:56:16;;;;;;;3.05;2.83;;;;;;;12.95;41.04;101430.28;5031552;27;98036;-76
2021/06/16 02:58:47;;;;;;;4.78;2.70;;;;;;;12.90;41.04;101431.97;5031522;27;98893;-77
2021/06/16 03:01:17;;;;;;;2.95;2.80;;;;;;;12.86;41.19;101430.09;5031029;27;99622;-77
2021/06/16 03:03:49;;;;;;;4.75;2.97;;;;;;;12.82;41.27;101428.25;5044614;27;97648;-77
2021/06/16 03:06:18;;;;;;;8.07;4.38;;;;;;;12.80;41.45;101427.31;5029465;27;97870;-78
2021/06/16 03:08:48;;;;;;;3.22;3.00;;;;;;;12.77;41.60;101425.47;5045105;27;99369;-78
2021/06/16 03:11:17;;;;;;;3.25;2.95;;;;;;;12.76;41.45;101434.34;5030044;27;97780;-78
2021/06/16 03:13:46;;;;;;;4.47;2.85;;;;;;;12.73;41.63;101434.25;5042575;27;98361;-77
2021/06/16 03:16:14;;;;;;;3.63;3.20;;;;;;;12.73;41.59;101436.06;4996858;27;97387;-76
2021/06/16 03:18:43;;;;;;;3.63;3.33;;;;;;;12.70;41.60;101438.63;5032199;27;100753;-76
2021/06/16 03:21:12;;;;;;;3.47;3.15;;;;;;;12.66;41.69;101429.66;5026215;27;100692;-76
2021/06/16 03:23:40;;;;;;;3.65;3.33;;;;;;;12.62;41.86;101437.59;5027480;27;97769;-76
2021/06/16 03:26:10;;;;;;;4.10;3.10;;;;;;;12.61;41.79;101427.75;5048788;27;98268;-76
2021/06/16 03:28:40;;;;;;;3.30;3.00;;;;;;;12.60;41.97;101432.19;5026031;27;99641;-76
2021/06/16 03:31:08;;;;;;;3.53;3.28;;;;;;;12.58;41.87;101425.94;5040465;27;97165;-75
2021/06/16 03:33:36;;;;;;;5.82;3.53;;;;;;;12.55;42.09;101435.59;5051758;27;98041;-76
2021/06/16 03:36:05;;;;;;;6.03;3.60;;;;;;;12.54;42.03;101433.81;5007867;27;97236;-75
2021/06/16 03:38:33;;;;;;;12.25;9.07;;;;;;;12.52;42.21;101435.53;5040499;27;98037;-76
2021/06/16 03:41:02;;;;;;;66.15;34.22;;;;;;;12.51;42.30;101439.97;5042042;27;98052;-76
2021/06/16 03:43:31;;;;;;;11.18;8.02;;;;;;;12.51;42.15;101441.78;5040596;27;96942;-76
2021/06/16 03:45:59;;;;;;;4.22;3.40;;;;;;;12.50;42.51;101438.19;5050878;27;97663;-76
2021/06/16 03:48:28;;;;;;;4.88;3.70;;;;;;;12.51;42.36;101445.31;5040525;27;98319;-75
2021/06/16 03:50:56;;;;;;;4.13;3.83;;;;;;;12.49;42.35;101444.38;5028865;27;100334;-76
2021/06/16 03:53:24;;;;;;;4.15;3.83;;;;;;;12.49;42.58;101448.84;5039940;27;96836;-75
2021/06/16 03:55:52;;;;;;;4.20;3.88;;;;;;;12.48;42.36;101447.94;5024210;27;97721;-76
2021/06/16 03:58:20;;;;;;;4.40;4.00;;;;;;;12.47;42.50;101446.13;5043462;27;98059;-75
2021/06/16 04:00:50;;;;;;;4.20;3.90;;;;;;;12.49;42.39;101452.38;5009060;27;99524;-75
2021/06/16 04:03:18;;;;;;;7.80;4.63;;;;;;;12.47;42.62;101440.78;5040828;27;97238;-76
2021/06/16 04:05:46;;;;;;;9.88;7.18;;;;;;;12.47;42.59;101454.16;5013530;27;97245;-75
2021/06/16 04:08:14;;;;;;;8.00;6.03;;;;;;;12.46;42.51;101449.66;5010467;27;99660;-75
2021/06/16 04:10:44;;;;;;;4.70;4.05;;;;;;;12.45;42.84;101450.53;5028489;27;99832;-78
2021/06/16 04:13:12;;;;;;;5.38;4.60;;;;;;;12.46;42.71;101456.75;5041139;27;97593;-76
2021/06/16 04:15:40;;;;;;;4.68;3.97;;;;;;;12.47;42.69;101448.81;5024216;27;97236;-79
2021/06/16 04:18:10;;;;;;;5.75;4.25;;;;;;;12.50;42.83;101453.28;5030911;27;99408;-76
2021/06/16 04:20:38;;;;;;;4.47;4.13;;;;;;;12.49;42.84;101456.84;5037623;27;97866;-75
2021/06/16 04:23:06;;;;;;;15.40;12.27;;;;;;;12.47;42.77;101450.56;5023688;27;98148;-75
2021/06/16 04:25:34;;;;;;;6.45;5.85;;;;;;;12.46;43.07;101455.00;5023426;27;97925;-75
2021/06/16 04:28:02;;;;;;;5.25;4.63;;;;;;;12.48;43.08;101455.03;5005957;27;99630;-75
2021/06/16 04:30:30;;;;;;;8.85;6.35;;;;;;;12.49;42.94;101454.16;5007929;27;100094;-75
2021/06/16 04:32:58;;;;;;;6.85;5.32;;;;;;;12.50;43.32;101456.88;5024292;27;97256;-75
2021/06/16 04:35:27;;;;;;;4.78;4.35;;;;;;;12.51;43.27;101452.44;5028457;27;97938;-75
2021/06/16 04:37:55;;;;;;;7.47;5.10;;;;;;;12.53;43.27;101453.38;5014973;27;99411;-76
2021/06/16 04:40:22;;;;;;;5.05;4.55;;;;;;;12.54;43.33;101447.16;5032035;27;99298;-74
2021/06/16 04:42:50;;;;;;;8.57;4.78;;;;;;;12.54;43.20;101450.75;5008516;27;97457;-76
2021/06/16 04:45:18;;;;;;;6.47;4.93;;;;;;;12.53;43.27;101446.25;5005237;27;96845;-74
2021/06/16 04:47:46;;;;;;;5.15;4.72;;;;;;;12.55;43.35;101459.63;5025320;27;99690;-75
2021/06/16 04:50:15;;;;;;;5.82;5.00;;;;;;;12.56;43.48;101462.38;5006460;27;100660;-74
2021/06/16 04:52:44;;;;;;;6.00;5.40;;;;;;;12.56;43.40;101451.69;5011785;27;96894;-75
2021/06/16 04:55:13;;;;;;;5.10;4.55;;;;;;;12.56;43.50;101457.03;5039837;27;96736;-75
2021/06/16 04:57:41;;;;;;;6.95;5.45;;;;;;;12.54;43.68;101444.50;5027996;27;99564;-75
2021/06/16 05:00:12;;;;;;;7.43;6.35;;;;;;;12.54;43.70;101441.81;5028169;27;99751;-74
2021/06/16 05:02:41;;;;;;;5.70;5.25;;;;;;;12.55;43.67;101443.63;5039568;27;96974;-76
2021/06/16 05:05:10;;;;;;;5.25;4.75;;;;;;;12.54;43.80;101437.41;5040968;27;97324;-75
2021/06/16 05:07:38;;;;;;;6.82;4.78;;;;;;;12.59;43.60;101434.81;4997955;27;101245;-76
2021/06/16 05:10:08;;;;;;;10.45;5.15;;;;;;;12.63;43.72;101434.94;5031039;27;99697;-76
2021/06/16 05:12:36;;;;;;;6.30;5.15;;;;;;;12.68;43.82;101430.59;5042766;27;97912;-75
2021/06/16 05:15:05;;;;;;;7.38;5.35;;;;;;;12.73;43.78;101428.06;5029080;27;96867;-75
2021/06/16 05:17:33;;;;;;;6.03;5.53;;;;;;;12.78;43.80;101427.25;5031217;27;100727;-75
2021/06/16 05:20:01;;;;;;;6.05;5.45;;;;;;;12.82;43.94;101426.47;5025360;27;98563;-75
2021/06/16 05:22:29;;;;;;;6.72;5.72;;;;;;;12.86;43.81;101422.09;5028259;27;97337;-76
2021/06/16 05:24:59;;;;;;;8.68;6.22;;;;;;;12.92;43.79;101416.88;5031951;27;97649;-76
2021/06/16 05:27:29;;;;;;;7.53;6.68;;;;;;;12.99;43.66;101410.81;5043535;27;98055;-75
2021/06/16 05:29:57;;;;;;;6.90;6.28;;;;;;;13.04;43.89;101418.06;5042635;27;97889;-75
2021/06/16 05:32:25;;;;;;;8.93;6.13;;;;;;;13.08;43.90;101419.03;5032417;27;97864;-75
2021/06/16 05:34:53;;;;;;;8.75;7.50;;;;;;;13.08;43.87;101411.94;5031878;27;97780;-75
2021/06/16 05:37:20;;;;;;;7.32;6.63;;;;;;;13.14;43.81;101422.75;5040741;27;98672;-76
2021/06/16 05:39:48;;;;;;;7.47;6.32;;;;;;;13.18;43.93;101410.38;5014955;27;99260;-75
2021/06/16 05:42:16;;;;;;;10.38;7.13;;;;;;;13.23;44.07;101410.44;5032766;27;97450;-74
2021/06/16 05:44:46;;;;;;;7.90;7.10;;;;;;;13.30;43.90;101412.34;5052934;27;96953;-75
2021/06/16 05:47:13;;;;;;;8.38;7.00;;;;;;;13.34;43.88;101409.78;5043032;27;99373;-75
2021/06/16 05:49:41;;;;;;;9.55;7.32;;;;;;;13.39;44.06;101408.09;5033563;27;99056;-75
2021/06/16 05:52:09;;;;;;;8.35;7.30;;;;;;;13.44;44.00;101405.53;5035155;27;97670;-74
2021/06/16 05:54:38;;;;;;;8.40;7.47;;;;;;;13.49;44.03;101406.53;5036046;27;97523;-75
2021/06/16 05:57:06;;;;;;;8.15;7.38;;;;;;;13.54;44.01;101403.06;5030962;27;99480;-74
2021/06/16 05:59:34;;;;;;;9.88;8.18;;;;;;;13.55;44.32;101409.31;5051790;27;98757;-67
2021/06/16 06:02:04;;;;;;;9.88;8.38;;;;;;;13.60;44.25;101408.53;5026655;27;98724;-67
2021/06/16 06:04:34;;;;;;;10.73;8.45;;;;;;;13.63;44.12;101400.56;5019155;27;97691;-68
2021/06/16 06:07:02;;;;;;;12.15;8.18;;;;;;;13.67;44.29;101407.78;5027117;27;99413;-68
2021/06/16 06:09:30;;;;;;;9.07;8.20;;;;;;;13.73;44.14;101410.53;5041298;27;98503;-68
2021/06/16 06:11:58;;;;;;;13.27;9.60;;;;;;;13.77;44.32;101407.03;5039259;27;97346;-68
2021/06/16 06:14:27;;;;;;;11.43;8.75;;;;;;;13.83;44.19;101400.94;5044253;27;96980;-67
2021/06/16 06:16:54;;;;;;;8.57;7.78;;;;;;;13.89;44.42;101414.44;5041285;27;97757;-67
2021/06/16 06:19:24;;;;;;;13.85;8.55;;;;;;;13.95;44.21;101409.19;5040219;27;98799;-67
2021/06/16 06:21:52;;;;;;;11.18;8.65;;;;;;;13.95;44.35;101399.38;5028399;27;97750;-67
2021/06/16 06:24:20;;;;;;;11.88;7.80;;;;;;;13.99;44.28;101409.25;5025899;27;97331;-68
2021/06/16 06:26:48;;;;;;;9.50;8.13;;;;;;;14.05;44.52;101403.13;5023964;27;97685;-67
2021/06/16 06:29:15;;;;;;;10.57;9.23;;;;;;;14.10;44.33;101396.97;5025877;27;98801;-67
2021/06/16 06:31:43;;;;;;;10.13;9.13;;;;;;;14.19;44.38;101396.19;5032313;27;97186;-67
2021/06/16 06:34:12;;;;;;;11.52;8.63;;;;;;;14.25;44.21;101400.75;5009935;27;97512;-67
2021/06/16 06:36:41;;;;;;;9.45;8.45;;;;;;;14.32;44.10;101397.28;5006762;27;98292;-67
2021/06/16 06:39:09;;;;;;;11.48;10.15;;;;;;;14.38;44.21;101394.72;4994730;27;97382;-67
2021/06/16 06:41:37;;;;;;;11.45;9.23;;;;;;;14.40;44.41;101392.97;5041376;27;97629;-67
2021/06/16 06:44:05;;;;;;;9.98;8.02;;;;;;;14.41;44.28;101398.34;5025214;27;97275;-67
2021/06/16 06:46:34;;;;;;;10.90;8.70;;;;;;;14.42;49.91;101400.16;5022977;27;98892;-75
2021/06/16 06:49:02;;;;;;;14.57;10.20;;;;;;;14.49;45.18;101394.00;5032555;27;98081;-74
2021/06/16 06:51:30;;;;;;;11.55;10.35;;;;;;;14.49;45.37;101393.09;4996065;27;97592;-72
2021/06/16 06:53:59;;;;;;;11.38;10.02;;;;;;;14.49;45.19;101393.09;5025236;27;99012;-73
2021/06/16 06:56:27;;;;;;;24.63;18.73;;;;;;;14.49;45.33;101385.06;5014587;27;99607;-72
2021/06/16 06:58:56;;;;;;;15.48;12.75;;;;;;;14.56;44.98;101389.66;5009399;27;100244;-75
2021/06/16 07:01:23;;;;;;;17.80;15.32;;;;;;;14.61;45.06;101390.66;5022984;27;97314;-72
2021/06/16 07:03:51;;;;;;;14.13;12.57;;;;;;;14.69;44.96;101384.53;5038138;27;97884;-74
2021/06/16 07:06:19;;;;;;;14.15;10.95;;;;;;;14.80;45.02;101381.97;5025313;27;98870;-74
2021/06/16 07:08:47;;;;;;;12.98;11.23;;;;;;;14.88;44.71;101383.88;5024379;27;100393;-74
2021/06/16 07:11:16;;;;;;;12.85;10.18;;;;;;;14.98;44.79;101379.53;5036414;27;98324;-75
2021/06/16 07:13:44;;;;;;;13.00;10.65;;;;;;;15.05;44.86;101379.63;5020781;27;97655;-74
2021/06/16 07:16:12;;;;;;;17.83;13.05;;;;;;;15.12;44.64;101368.09;5025459;27;99829;-75
2021/06/16 07:18:40;;;;;;;17.67;12.48;;;;;;;15.22;44.79;101371.78;5007909;27;99299;-74
2021/06/16 07:21:08;;;;;;;16.15;14.00;;;;;;;15.32;44.24;101373.72;5022815;27;98241;-77
2021/06/16 07:23:36;;;;;;;38.42;26.45;;;;;;;15.38;44.73;101368.44;5009249;27;97964;-76
2021/06/16 07:26:04;;;;;;;17.30;13.57;;;;;;;15.47;44.45;101372.97;5024994;27;99423;-76
2021/06/16 07:28:33;;;;;;;15.40;12.55;;;;;;;15.55;44.43;101371.28;5025370;27;99326;-76
2021/06/16 07:31:02;;;;;;;18.80;12.68;;;;;;;15.64;44.26;101366.91;5023957;27;97174;-76
2021/06/16 07:33:31;;;;;;;15.90;11.75;;;;;;;15.71;44.49;101370.53;5004980;27;97487;-76
2021/06/16 07:35:59;;;;;;;13.65;11.40;;;;;;;15.78;44.45;101364.34;5020730;27;100600;-76
2021/06/16 07:38:27;;;;;;;13.50;10.38;;;;;;;15.87;44.31;101367.09;5005649;27;98776;-74
2021/06/16 07:40:56;;;;;;;17.20;15.07;;;;;;;15.94;44.20;101361.81;5022424;27;97335;-73
2021/06/16 07:43:24;;;;;;;14.70;13.02;;;;;;;16.03;44.15;101366.41;5022981;27;98724;-72
2021/06/16 07:45:53;;;;;;;15.80;13.18;;;;;;;16.09;43.93;101361.97;5024540;27;99099;-73
2021/06/16 07:48:21;;;;;;;31.00;23.58;;;;;;;16.15;44.15;101357.53;5025501;27;99187;-76
2021/06/16 07:50:49;;;;;;;19.80;15.80;;;;;;;16.22;44.05;101362.06;5023925;27;97065;-75
2021/06/16 07:53:16;;;;;;;20.20;15.63;;;;;;;16.28;44.07;101357.66;5008447;27;97770;-74
2021/06/16 07:55:44;;;;;;;21.25;17.13;;;;;;;16.35;43.89;101353.19;5021495;27;99015;-73
2021/06/16 07:58:12;;;;;;;18.98;14.40;;;;;;;16.44;44.19;101353.25;5023206;27;99331;-72
2021/06/16 08:00:40;;;;;;;15.10;13.30;;;;;;;16.51;44.25;101353.31;5011760;27;97990;-76
2021/06/16 08:03:09;;;;;;;12.52;11.18;;;;;;;16.58;43.87;101356.94;5040174;27;96988;-74
2021/06/16 08:05:37;;;;;;;15.25;12.80;;;;;;;16.65;44.35;101358.78;5022449;27;100334;-74
2021/06/16 08:08:06;;;;;;;17.25;12.68;;;;;;;16.71;44.06;101357.03;5028200;27;100347;-75
2021/06/16 08:10:34;;;;;;;15.00;12.23;;;;;;;16.79;43.92;101354.38;5024016;27;96913;-75
2021/06/16 08:13:02;;;;;;;15.98;11.25;;;;;;;16.87;43.94;101360.72;5021647;27;97397;-74
2021/06/16 08:15:32;;;;;;;13.20;11.77;;;;;;;16.93;43.95;101360.72;5020976;27;99543;-75
2021/06/16 08:17:59;;;;;;;13.77;11.90;;;;;;;16.99;43.85;101355.38;5020058;27;99185;-75
2021/06/16 08:20:29;;;;;;;13.63;12.10;;;;;;;17.08;44.00;101355.41;5020088;27;97608;-74
2021/06/16 08:22:57;;;;;;;32.85;24.05;;;;;;;17.15;43.88;101356.31;5020084;27;97492;-73
2021/06/16 08:25:25;;;;;;;36.00;25.88;;;;;;;17.21;43.62;101348.28;5036989;27;101190;-72
2021/06/16 08:27:53;;;;;;;19.75;15.27;;;;;;;17.26;43.92;101344.69;5035927;27;98905;-74
2021/06/16 08:30:22;;;;;;;13.77;12.32;;;;;;;17.33;43.84;101351.00;5037416;27;97352;-74
2021/06/16 08:32:50;;;;;;;14.40;12.55;;;;;;;17.40;43.67;101347.47;5027372;27;97763;-75
2021/06/16 08:35:18;;;;;;;14.48;11.85;;;;;;;17.46;43.58;101337.59;5037439;27;97670;-75
2021/06/16 08:37:47;;;;;;;14.00;11.38;;;;;;;17.53;43.74;101334.03;5038639;27;97535;-75
2021/06/16 08:40:16;;;;;;;12.45;11.18;;;;;;;17.61;43.51;101334.03;5024738;27;97080;-75
2021/06/16 08:42:46;;;;;;;13.48;12.05;;;;;;;17.68;43.61;101333.13;5021127;27;96916;-73
2021/06/16 08:45:15;;;;;;;28.85;24.27;;;;;;;17.74;43.60;101330.47;5025255;27;99997;-75
2021/06/16 08:47:45;;;;;;;15.65;13.63;;;;;;;17.76;43.87;101325.97;5037460;27;97384;-76
2021/06/16 08:50:15;;;;;;;14.32;12.82;;;;;;;17.81;43.56;101330.47;5038469;27;97374;-75
2021/06/16 08:52:44;;;;;;;12.65;11.00;;;;;;;17.87;43.45;101319.72;5007649;27;97884;-74
2021/06/16 08:55:16;;;;;;;15.38;11.57;;;;;;;17.92;43.53;101323.28;5037780;27;97829;-76
2021/06/16 08:57:44;;;;;;;14.38;11.05;;;;;;;17.98;43.61;101319.69;5024539;27;99256;-74
2021/06/16 09:00:14;;;;;;;17.17;11.35;;;;;;;18.04;43.40;101328.69;5038295;27;97793;-76
2021/06/16 09:02:42;;;;;;;19.92;12.80;;;;;;;18.12;43.12;101317.91;5023495;27;98257;-76
2021/06/16 09:05:11;;;;;;;17.15;11.35;;;;;;;18.19;43.20;101321.47;5038831;27;99059;-67
2021/06/16 09:07:40;;;;;;;12.75;11.45;;;;;;;18.24;43.16;101319.69;5027808;27;98414;-66
2021/06/16 09:10:10;;;;;;;12.88;10.82;;;;;;;18.29;43.30;101316.09;5034962;27;97020;-73
2021/06/16 09:12:44;;;;;;;11.73;10.52;;;;;;;18.33;42.91;101315.16;5034205;27;98180;-73
2021/06/16 09:15:14;;;;;;;14.35;12.63;;;;;;;18.39;43.03;101319.63;5022759;27;99476;-74
2021/06/16 09:17:43;;;;;;;10.23;9.30;;;;;;;18.44;42.65;101307.94;4999729;27;101567;-73
2021/06/16 09:20:11;;;;;;;9.73;8.30;;;;;;;18.48;42.85;101307.03;5035250;27;97320;-73
2021/06/16 09:22:40;;;;;;;10.70;9.70;;;;;;;18.56;42.57;101312.41;5015177;27;98052;-76
2021/06/16 09:25:12;;;;;;;9.50;8.57;;;;;;;18.61;42.67;101302.50;4991170;27;97787;-74
2021/06/16 09:27:44;;;;;;;9.40;8.60;;;;;;;18.66;42.49;101304.28;5042329;27;97777;-74
2021/06/16 09:30:35;;;;;;;11.88;8.65;;;;;;;18.75;42.28;101311.50;5026594;27;96944;-74
2021/06/16 09:33:10;;;;;;;10.15;8.13;;;;;;;18.80;41.85;101304.28;5037361;27;97376;-74
2021/06/16 09:35:40;;;;;;;10.10;8.55;;;;;;;18.88;42.08;101305.13;5029348;27;97474;-74
2021/06/16 09:38:10;;;;;;;12.40;8.15;;;;;;;18.96;41.71;101300.59;5033261;27;97388;-76
2021/06/16 09:40:41;;;;;;;9.00;8.07;;;;;;;19.03;41.86;101296.97;5036642;27;97844;-74
2021/06/16 09:43:12;;;;;;;9.80;8.50;;;;;;;19.11;41.34;101295.13;5022120;27;97985;-74
2021/06/16 09:45:43;;;;;;;10.02;8.82;;;;;;;19.19;41.56;101295.97;5036254;27;97987;-74
2021/06/16 09:48:22;;;;;;;11.23;8.57;;;;;;;19.28;41.47;101292.31;5022856;27;97879;-74
2021/06/16 09:50:52;;;;;;;11.32;8.70;;;;;;;19.34;41.03;101290.50;5026638;27;98260;-74
2021/06/16 09:53:21;;;;;;;9.40;8.52;;;;;;;19.41;40.91;101292.25;5022855;27;97437;-75
2021/06/16 09:55:48;;;;;;;9.07;8.23;;;;;;;19.43;40.91;101293.13;5024110;27;99582;-75
2021/06/16 09:58:18;;;;;;;10.32;9.32;;;;;;;19.48;40.84;101294.00;5042932;27;97928;-75
2021/06/16 10:00:48;;;;;;;8.60;7.78;;;;;;;19.53;41.14;101286.78;5041741;27;97133;-74
2021/06/16 10:03:17;;;;;;;9.55;8.65;;;;;;;19.59;41.05;101275.91;5044121;27;98437;-72
2021/06/16 10:06:08;;;;;;;9.50;8.52;;;;;;;19.63;40.92;101272.28;5023582;27;97773;-72
2021/06/16 10:08:38;;;;;;;9.85;8.68;;;;;;;19.69;40.51;101272.22;5028033;27;99180;-72
2021/06/16 10:11:08;;;;;;;7.80;6.95;;;;;;;19.77;40.34;101269.47;5026496;27;97476;-72
2021/06/16 10:13:38;;;;;;;11.90;8.32;;;;;;;19.83;40.58;101267.59;5041701;27;97932;-72
2021/06/16 10:16:07;;;;;;;11.60;8.77;;;;;;;19.89;40.08;101272.94;5023285;27;100521;-72
2021/06/16 10:18:41;;;;;;;10.30;9.07;;;;;;;19.94;39.99;101271.13;5008001;27;100832;-72
2021/06/16 10:21:10;;;;;;;10.43;9.35;;;;;;;19.98;40.36;101264.78;5024241;27;96856;-72
2021/06/16 10:23:38;;;;;;;9.85;8.85;;;;;;;20.04;40.26;101257.53;5025724;27;98067;-72
2021/06/16 10:26:08;;;;;;;8.98;8.18;;;;;;;20.07;39.84;101254.78;5028980;27;99351;-72
2021/06/16 10:28:48;;;;;;;10.07;9.18;;;;;;;20.11;40.04;101249.34;5025930;27;100820;-72
2021/06/16 10:31:20;;;;;;;10.07;8.73;;;;;;;20.14;39.91;101243.03;5041790;27;97465;-72
2021/06/16 10:33:56;;;;;;;10.73;8.43;;;;;;;20.20;40.02;101243.84;5041160;27;98307;-74
2021/06/16 10:36:24;;;;;;;13.25;9.20;;;;;;;20.26;39.67;101245.56;5022103;27;99416;-74
2021/06/16 10:39:14;;;;;;;9.25;8.45;;;;;;;20.32;40.14;101240.09;5041848;27;98766;-74
2021/06/16 10:41:56;;;;;;;11.10;8.43;;;;;;;20.38;40.07;101235.50;5023060;27;97268;-73
2021/06/16 10:44:27;;;;;;;9.93;8.63;;;;;;;20.44;39.86;101234.53;5023181;27;97605;-74
2021/06/16 10:46:57;;;;;;;9.90;8.75;;;;;;;20.51;39.83;101233.53;5023454;27;99967;-73
2021/06/16 10:49:52;;;;;;;9.73;8.10;;;;;;;20.60;39.52;101233.47;5022469;27;98980;-73
2021/06/16 10:52:22;;;;;;;8.95;7.82;;;;;;;20.68;39.31;101227.06;5022411;27;97482;-73
2021/06/16 10:54:58;;;;;;;13.45;8.35;;;;;;;20.74;39.25;101236.91;5024110;27;97070;-74
2021/06/16 10:57:28;;;;;;;11.38;8.90;;;;;;;20.82;39.11;101230.47;5022253;27;99712;-74
2021/06/16 11:00:20;;;;;;;10.90;8.13;;;;;;;20.91;39.05;101233.03;5040562;27;97593;-73
2021/06/16 11:02:56;;;;;;;10.13;8.65;;;;;;;20.99;38.73;101224.81;5040621;27;97151;-73
2021/06/16 11:05:27;;;;;;;8.90;8.10;;;;;;;21.05;39.10;101221.13;5020587;27;97649;-74
2021/06/16 11:07:56;;;;;;;11.25;8.23;;;;;;;21.14;38.50;101219.22;5040578;27;98546;-73
2021/06/16 11:10:24;;;;;;;10.07;8.38;;;;;;;21.21;38.30;101218.19;5005064;27;99614;-74
2021/06/16 11:12:53;;;;;;;9.07;7.93;;;;;;;21.29;38.47;101221.66;5037943;27;98278;-74
2021/06/16 11:15:35;;;;;;;8.88;8.02;;;;;;;21.42;38.46;101222.34;5040487;27;98322;-74
2021/06/16 11:18:04;;;;;;;8.60;7.82;;;;;;;21.49;38.17;101210.50;5025839;27;100861;-74
2021/06/16 11:20:35;;;;;;;11.85;8.77;;;;;;;21.57;38.29;101212.16;5038107;27;99011;-74
2021/06/16 11:23:08;;;;;;;10.23;8.07;;;;;;;21.66;38.17;101209.28;5037588;27;97819;-73
2021/06/16 11:25:38;;;;;;;9.57;8.77;;;;;;;21.73;38.04;101208.28;5006470;27;96923;-75
2021/06/16 11:28:10;;;;;;;9.93;7.32;;;;;;;21.82;37.61;101208.13;5024052;27;99575;-74
2021/06/16 11:30:59;;;;;;;9.18;8.27;;;;;;;21.87;37.59;101199.91;5022200;27;101077;-74